Sibley, IA

5:53 AM CDT on July 30, 2014 (GMT -0500)
Sheldon Municipal (KSHL) Elev 1417 ft | 43.21 °N, 95.84 °W | Change Station

Current weather conditions updated 18 minutes ago

Clear
Clear
48 °F
Feels Like 48 °F
N
0
Wind Variable Wind from North

Today is forecast to be Warmer than yesterday.

Today
High -- | Low -- °F
--% Chance of Precip.
Yesterday
High -- | Low -- °F
Precip. -- in
6:10 AM 8:47 PM
Waxing Crescent, 11% visible
Pressure 30.13 in
Visibility 8.0 miles
Clouds Clear
Dew Point 46 °F
Humidity 93%
Rainfall 0.00 in
Snow Depth Not available.
UV 0 out of 12
Pollen 5.90 out of 12
Air Quality Not available.
Flu Activity Not available.
METAR KSHL 301035Z AUTO 00000KT 8SM CLR 09/08 A3013 RMK AO2

More Conditions Fewer Conditions

Pressure 30.13 in
Visibility 8.0 miles
Clouds Clear
Dew Point 46 °F
Humidity 93%
Rainfall 0.00 in
Snow Depth Not available.
UV 0 out of 12
Pollen 5.90 out of 12
Air Quality Not available.
Flu Activity Not available.
METAR KSHL 301035Z AUTO 00000KT 8SM CLR 09/08 A3013 RMK AO2

More Conditions Fewer Conditions

10-Day Weather Forecast

Almanac

Astronomy

Jul. 30, 2014 Rise Set
Actual Time 6:10 AM CDT 8:47 PM CDT
Civil Twilight 5:37 AM CDT 9:20 PM CDT
Nautical Twilight 4:56 AM CDT 10:00 PM CDT
Astronomical Twilight 4:09 AM CDT 10:47 PM CDT
Moon 9:51 AM CDT 10:21 PM CDT
Length of Visible Light 15h 42m
Length of Day
14h 36m
Tomorrow will be 2m 13s shorter.
Waxing Crescent, 11% of the Moon is Illuminated
Today
Waxing Crescent
Aug 3
First Quarter
Aug 10
Full
Aug 17
Last Quarter
Aug 25
New

Today's Extremes

State Highs State Lows

Community

WunderPhotos

Upload Photos

1,739,037 photos uploaded!

WunderBlogs® & News

Nearby

Snow Depth

Station Depth Elevation
No new snow has been reported.

Earthquake Activity

City Distance Mag. Time & Date
No recent earthquake activity has been reported nearby.
Minimum magnitude displayed is 2.5.

Coastal Water Temperatures

Place Temperature
No Stations Reporting

Nearby Weather Stations

Station Location Temp. Windchill Dew Point Humidity Wind Precip. Elev Updated Type
MesoWest SIBLEY , Sibley, IA 48 °F 48 °F - - North  at  - 0.00 in / hr 1530 ft 4:40 AM CDT MADIS
Wilson Street, Sheldon, IA 54.5 °F - 54 °F 100% NNW  at  0.0 mph 0.00 in / hr 1447 ft 5:53 AM CDT Rapid Fire
Round Lake, Round Lake, MN 53.3 °F - 52 °F 94% SW  at  2.0 mph 0.00 in / hr 1535 ft 5:50 AM CDT Normal
MesoWest WORTHI , Worthington, MN 52 °F - - - North  at  - 0.00 in / hr 1556 ft 3:15 AM CDT MADIS
MesoWest HOSPER , Hospers, IA 50 °F - - - North  at  - 0.00 in / hr 1375 ft 5:00 AM CDT MADIS
Dugout Creek, Lake Park, IA 51.2 °F - 27 °F 39% NW  at  0.0 mph 0.00 in / hr 1444 ft 5:53 AM CDT Rapid Fire

Show More Stations Show Fewer Stations